This is the latest recevied weather packets stored in our database for station/object K7TUS-6. If no packets are shown the sender has not sent any weather packets the latest 10 day(s).
| Time | Temp. | Humidity | Pressure | Rain* | Wind** | Luminosity | Snow |
|---|---|---|---|---|---|---|---|
| 1777606204 | 6.67° C | 44% | 978.4 hPa | - | - | - | - |
| 1777605904 | 7.22° C | 47% | 977.9 hPa | - | - | - | - |
| 1777605609 | 7.22° C | 44% | 977.4 hPa | - | - | - | - |
| 1777605309 | 7.22° C | 46% | 978.1 hPa | - | - | - | - |
| 1777605007 | 6.67° C | 49% | 977.5 hPa | - | - | - | - |
| 1777604706 | 6.67° C | 51% | 977.7 hPa | - | - | - | - |
| 1777604406 | 6.67° C | 37% | 977.9 hPa | - | - | - | - |
| 1777604105 | 7.22° C | 38% | 977 hPa | - | - | - | - |
| 1777603505 | 7.78° C | 39% | 977.1 hPa | - | - | - | - |
| 1777602904 | 8.33° C | 24% | 976.7 hPa | - | - | - | - |
| 1777602604 | 8.33° C | 22% | 976.7 hPa | - | - | - | - |
| 1777602303 | 8.33° C | 22% | 977.2 hPa | - | - | - | - |
| 1777602003 | 8.33° C | 17% | 977.3 hPa | - | - | - | - |
| 1777601407 | 9.44° C | 10% | 977 hPa | - | - | - | - |
| 1777587307 | 18.33° C | 1% | 978.6 hPa | - | - | - | - |
| 1777585209 | 18.89° C | 1% | 978.6 hPa | - | - | - | - |
| 1777584607 | 17.78° C | 1% | 979.6 hPa | - | - | - | - |
| 1777584006 | 16.67° C | 1% | 979.5 hPa | - | - | - | - |
| 1777583405 | 17.78° C | 1% | 979.6 hPa | - | - | - | - |
| 1777581908 | 18.33° C | 1% | 980.5 hPa | - | - | - | - |
| 1777581307 | 19.44° C | 1% | 980.5 hPa | - | - | - | - |
| 1777581006 | 18.89° C | 1% | 980.4 hPa | - | - | - | - |
| 1777580706 | 19.44° C | 1% | 980.4 hPa | - | - | - | - |
| 1777580405 | 17.78° C | 1% | 980.2 hPa | - | - | - | - |
| 1777579810 | 19.44° C | 1% | 980.5 hPa | - | - | - | - |
* Rain since midnight (hover to see other rain measurements)
** Current wind speed in m/s (hover to see current wind gust speed)